Time;durP1;ratioP1;P1;durP2;ratioP2;P2;SDS_P1;SDS_P2;PMS_P1;PMS_P2;Temp;Humidity;BMP_temperature;BMP_pressure;BME280_temperature;BME280_humidity;BME280_pressure;Samples;Min_cycle;Max_cycle;Signal;HPM_P1;HPM_P2
2023/11/26 00:00:24;;;;;;;6.38;2.45;;;0.70;99.90;;;;;;6256421;22;20028;-84
2023/11/26 00:03:12;;;;;;;8.00;2.40;;;0.70;99.90;;;;;;6274017;22;20173;-84
2023/11/26 00:06:00;;;;;;;5.15;2.30;;;0.70;99.90;;;;;;6275094;22;20361;-83
2023/11/26 00:08:52;;;;;;;4.70;2.28;;;0.70;99.90;;;;;;6274633;22;20034;-84
2023/11/26 00:11:40;;;;;;;6.40;2.67;;;0.70;99.90;;;;;;6253199;22;20027;-82
2023/11/26 00:14:27;;;;;;;7.20;2.88;;;0.70;99.90;;;;;;6279082;22;20287;-83
2023/11/26 00:17:15;;;;;;;9.07;4.35;;;0.70;99.90;;;;;;6254158;22;20378;-83
2023/11/26 00:20:06;;;;;;;11.82;4.75;;;0.70;99.90;;;;;;6275180;22;20024;-82
2023/11/26 00:22:54;;;;;;;13.40;5.82;;;0.80;99.90;;;;;;6256000;22;20024;-83
2023/11/26 00:25:41;;;;;;;15.73;5.78;;;0.80;99.90;;;;;;6274351;22;20410;-83
2023/11/26 00:28:29;;;;;;;11.00;7.20;;;0.90;99.90;;;;;;6276335;22;20452;-82
2023/11/26 00:31:16;;;;;;;16.83;6.05;;;0.90;99.90;;;;;;6271494;22;20106;-83
2023/11/26 00:34:04;;;;;;;11.90;7.03;;;0.90;99.90;;;;;;6272829;22;20099;-82
2023/11/26 00:36:52;;;;;;;25.23;7.20;;;0.90;99.90;;;;;;6254789;22;20055;-83
2023/11/26 00:39:39;;;;;;;17.50;8.32;;;0.80;99.90;;;;;;6276919;22;20020;-82
2023/11/26 00:42:26;;;;;;;20.10;8.57;;;0.80;99.90;;;;;;6278849;22;20034;-83
2023/11/26 00:45:14;;;;;;;23.33;9.20;;;0.80;99.90;;;;;;6275382;22;20020;-82
2023/11/26 00:48:01;;;;;;;18.80;8.75;;;0.80;99.90;;;;;;6274180;22;20419;-83
2023/11/26 00:50:48;;;;;;;18.70;8.95;;;0.80;99.90;;;;;;6251861;22;20024;-83
2023/11/26 00:53:36;;;;;;;20.23;8.27;;;0.80;99.90;;;;;;6274593;22;20052;-82
2023/11/26 00:56:25;;;;;;;12.75;7.75;;;0.70;99.90;;;;;;6273027;22;20039;-82
2023/11/26 00:59:12;;;;;;;14.35;8.13;;;0.80;99.90;;;;;;6275778;22;20068;-81
2023/11/26 01:02:00;;;;;;;18.63;9.50;;;0.80;99.90;;;;;;6273355;22;20097;-82
2023/11/26 01:04:50;;;;;;;16.35;7.47;;;0.80;99.90;;;;;;6274274;22;20023;-83
2023/11/26 01:07:42;;;;;;;18.15;7.97;;;0.80;99.90;;;;;;6287988;22;20024;-83
2023/11/26 01:10:29;;;;;;;9.88;5.88;;;0.80;99.90;;;;;;6278832;22;20106;-82
2023/11/26 01:13:17;;;;;;;17.20;8.15;;;0.80;99.90;;;;;;6277585;22;20324;-81
2023/11/26 01:16:07;;;;;;;17.48;7.28;;;0.80;99.90;;;;;;6275808;22;20016;-82
2023/11/26 01:18:57;;;;;;;19.85;6.95;;;0.80;99.90;;;;;;6252825;22;20028;-82
2023/11/26 01:21:47;;;;;;;13.48;6.78;;;0.80;99.90;;;;;;6272532;22;20028;-82
2023/11/26 01:24:34;;;;;;;13.60;7.15;;;0.80;99.90;;;;;;6274684;22;20050;-82
2023/11/26 01:27:21;;;;;;;18.70;7.65;;;0.70;99.90;;;;;;6273287;22;20106;-80
2023/11/26 01:30:11;;;;;;;14.98;6.72;;;0.60;99.90;;;;;;6278986;22;20416;-83
2023/11/26 01:32:58;;;;;;;15.98;7.45;;;0.60;99.90;;;;;;6277378;22;20371;-82
2023/11/26 01:35:46;;;;;;;13.63;6.97;;;0.50;99.90;;;;;;6279503;22;20020;-81
2023/11/26 01:38:33;;;;;;;13.30;6.53;;;0.40;99.90;;;;;;6279788;22;20030;-80
2023/11/26 01:41:20;;;;;;;16.00;7.15;;;0.40;99.90;;;;;;6278654;22;20043;-83
2023/11/26 01:44:07;;;;;;;13.38;6.15;;;0.30;99.90;;;;;;6278815;22;20035;-81
2023/11/26 01:46:58;;;;;;;16.42;6.10;;;0.30;99.90;;;;;;6273329;22;20028;-82
2023/11/26 01:49:45;;;;;;;12.73;6.05;;;0.20;99.90;;;;;;6272646;22;20326;-82
2023/11/26 01:52:37;;;;;;;16.10;6.30;;;0.20;99.90;;;;;;6270553;22;20470;-84
2023/11/26 01:55:25;;;;;;;13.90;5.50;;;0.10;99.90;;;;;;6275595;22;20078;-82
2023/11/26 01:58:15;;;;;;;15.98;5.35;;;0.10;99.90;;;;;;6273242;22;20016;-81
2023/11/26 02:01:05;;;;;;;10.68;5.20;;;0.00;99.90;;;;;;6273004;22;20024;-83
2023/11/26 02:03:52;;;;;;;20.33;5.72;;;0.00;99.90;;;;;;6273577;22;20028;-81
2023/11/26 02:06:42;;;;;;;14.90;5.88;;;0.00;99.90;;;;;;6275172;22;20098;-83
2023/11/26 02:09:29;;;;;;;11.02;5.07;;;0.00;99.90;;;;;;6272792;22;20050;-83
2023/11/26 02:12:18;;;;;;;11.65;4.78;;;0.00;99.90;;;;;;6272645;22;20375;-80
2023/11/26 02:15:06;;;;;;;12.77;5.32;;;0.00;99.90;;;;;;6252861;22;20083;-82
2023/11/26 02:17:56;;;;;;;11.48;5.00;;;0.00;99.90;;;;;;6273083;22;20095;-82
2023/11/26 02:20:43;;;;;;;15.98;4.70;;;0.00;99.90;;;;;;6253413;22;20039;-83
2023/11/26 02:23:36;;;;;;;9.73;4.60;;;0.00;99.90;;;;;;6251050;22;20103;-83
2023/11/26 02:26:26;;;;;;;12.35;4.88;;;-0.10;99.90;;;;;;6271696;22;20409;-83
2023/11/26 02:29:13;;;;;;;11.70;4.38;;;-0.10;99.90;;;;;;6250768;22;20419;-83
2023/11/26 02:32:03;;;;;;;14.57;4.68;;;-0.20;99.90;;;;;;6275319;22;20326;-83
2023/11/26 02:34:51;;;;;;;8.63;4.57;;;-0.20;99.90;;;;;;6272285;22;20050;-83
2023/11/26 02:37:41;;;;;;;15.10;4.18;;;-0.30;99.90;;;;;;6273945;22;20020;-83
2023/11/26 02:40:28;;;;;;;7.07;3.65;;;-0.30;99.90;;;;;;6280192;22;20020;-83
2023/11/26 02:43:16;;;;;;;9.95;4.25;;;-0.40;99.90;;;;;;6248965;22;20059;-83
2023/11/26 02:46:07;;;;;;;12.45;4.28;;;-0.50;99.90;;;;;;6271397;22;20027;-83
2023/11/26 02:48:54;;;;;;;13.82;4.72;;;-0.60;99.90;;;;;;6282383;22;20067;-80
2023/11/26 02:51:42;;;;;;;9.13;4.13;;;-0.70;99.90;;;;;;6285554;22;20028;-79
2023/11/26 02:54:30;;;;;;;14.20;4.90;;;-0.70;99.90;;;;;;6278485;22;20307;-82
2023/11/26 02:57:17;;;;;;;9.07;4.60;;;-0.70;99.90;;;;;;6277509;22;20035;-79
2023/11/26 03:00:15;;;;;;;13.23;5.10;;;-0.80;99.90;;;;;;6277549;22;20108;-81
2023/11/26 03:03:03;;;;;;;10.27;4.32;;;-0.80;99.90;;;;;;6275748;22;20024;-79
2023/11/26 03:05:54;;;;;;;13.05;4.95;;;-0.80;99.90;;;;;;6254071;22;20023;-81
2023/11/26 03:08:43;;;;;;;16.05;4.07;;;-0.70;99.90;;;;;;6279328;22;20109;-81
2023/11/26 03:14:36;;;;;;;14.02;4.32;;;-0.70;99.90;;;;;;6276119;22;20027;-82
2023/11/26 03:17:23;;;;;;;12.63;5.07;;;-0.80;99.90;;;;;;6255310;22;20090;-82
2023/11/26 03:20:16;;;;;;;14.15;5.00;;;-0.80;99.90;;;;;;6252824;22;20350;-83
2023/11/26 03:23:09;;;;;;;12.35;5.50;;;-0.80;99.90;;;;;;6277603;22;20024;-81
2023/11/26 03:25:57;;;;;;;15.75;5.40;;;-0.80;99.90;;;;;;6277918;22;20027;-82
2023/11/26 03:28:46;;;;;;;20.80;5.22;;;-0.80;99.90;;;;;;6276187;22;20024;-82
2023/11/26 03:31:34;;;;;;;14.23;5.07;;;-0.80;99.90;;;;;;6275504;22;20359;-81
2023/11/26 03:34:28;;;;;;;12.00;4.43;;;-0.90;99.90;;;;;;6276233;22;20034;-82
2023/11/26 03:37:15;;;;;;;10.52;4.40;;;-0.80;99.90;;;;;;6276612;22;20078;-83
2023/11/26 03:40:07;;;;;;;14.68;4.80;;;-0.80;99.90;;;;;;6276534;22;20020;-77
2023/11/26 03:42:54;;;;;;;16.33;4.43;;;-0.80;99.90;;;;;;6272807;22;20024;-81
2023/11/26 03:45:41;;;;;;;14.05;4.55;;;-0.80;99.90;;;;;;6250240;22;20024;-81
2023/11/26 03:48:29;;;;;;;21.33;5.32;;;-0.80;99.90;;;;;;6254962;22;20574;-81
2023/11/26 03:51:17;;;;;;;13.73;5.00;;;-0.80;99.90;;;;;;6277348;22;20318;-82
2023/11/26 03:54:05;;;;;;;14.73;4.93;;;-0.90;99.90;;;;;;6274607;22;20105;-81
2023/11/26 03:56:54;;;;;;;7.45;4.28;;;-0.90;99.90;;;;;;6274925;22;20310;-81
2023/11/26 03:59:44;;;;;;;13.30;4.82;;;-0.90;99.90;;;;;;6251622;22;20020;-81
2023/11/26 04:02:33;;;;;;;12.50;5.18;;;-1.00;99.90;;;;;;6275400;22;20023;-81
2023/11/26 04:05:22;;;;;;;14.57;4.57;;;-1.00;99.90;;;;;;6275726;22;20038;-81
2023/11/26 04:08:12;;;;;;;15.55;5.43;;;-1.00;99.90;;;;;;6274897;22;20057;-79
2023/11/26 04:11:01;;;;;;;17.30;5.70;;;-0.90;99.90;;;;;;6273467;22;20023;-82
2023/11/26 04:13:49;;;;;;;23.02;6.57;;;-0.70;99.90;;;;;;6250646;22;20024;-82
2023/11/26 04:16:36;;;;;;;14.68;5.50;;;-0.60;99.90;;;;;;6271621;22;20402;-81
2023/11/26 04:19:26;;;;;;;25.27;7.32;;;-0.50;99.90;;;;;;6274955;22;20095;-81
2023/11/26 04:22:15;;;;;;;12.73;6.70;;;-0.40;99.90;;;;;;6274560;22;20020;-82
2023/11/26 04:25:02;;;;;;;16.52;6.15;;;-0.30;99.90;;;;;;6271965;22;20039;-80
2023/11/26 04:27:54;;;;;;;21.42;8.80;;;-0.20;99.90;;;;;;6276476;22;20058;-80
2023/11/26 04:30:41;;;;;;;13.30;7.38;;;-0.10;99.90;;;;;;6273732;22;20117;-80
2023/11/26 04:33:29;;;;;;;16.95;6.55;;;-0.10;99.90;;;;;;6255006;22;20077;-80
2023/11/26 04:36:18;;;;;;;21.05;6.40;;;-0.10;99.90;;;;;;6276316;22;20326;-80
2023/11/26 04:39:05;;;;;;;17.33;6.43;;;0.00;99.90;;;;;;6276740;22;20020;-80
2023/11/26 04:41:56;;;;;;;10.63;5.82;;;0.10;99.90;;;;;;6256947;22;20023;-80
2023/11/26 04:44:45;;;;;;;23.40;6.13;;;0.10;99.90;;;;;;6280315;22;20111;-81
2023/11/26 04:47:35;;;;;;;11.90;6.05;;;0.10;99.90;;;;;;6277988;22;20023;-81
2023/11/26 04:50:23;;;;;;;12.38;5.80;;;0.10;99.90;;;;;;6279334;22;20091;-81
2023/11/26 04:53:13;;;;;;;13.98;6.30;;;0.10;99.90;;;;;;6279737;22;20023;-82
2023/11/26 04:56:00;;;;;;;11.35;5.70;;;0.10;99.90;;;;;;6275308;22;20030;-82
2023/11/26 04:58:47;;;;;;;12.98;6.30;;;0.10;99.90;;;;;;6254927;22;20027;-82
2023/11/26 05:01:44;;;;;;;12.02;5.95;;;0.20;99.90;;;;;;6271590;22;20026;-80
2023/11/26 05:04:34;;;;;;;11.15;5.22;;;0.20;99.90;;;;;;6276529;22;20028;-80
2023/11/26 05:07:24;;;;;;;12.85;5.65;;;0.20;99.90;;;;;;6250939;22;20084;-81
2023/11/26 05:10:11;;;;;;;11.63;6.15;;;0.20;99.90;;;;;;6274463;22;20028;-81
2023/11/26 05:13:01;;;;;;;15.75;5.93;;;0.20;99.90;;;;;;6250964;22;20024;-79
2023/11/26 05:15:48;;;;;;;11.00;5.75;;;0.20;99.90;;;;;;6272177;22;20020;-80
2023/11/26 05:18:37;;;;;;;10.93;4.88;;;0.30;99.90;;;;;;6274730;22;20026;-79
2023/11/26 05:21:27;;;;;;;11.05;5.20;;;0.30;99.90;;;;;;6273062;22;20322;-81
2023/11/26 05:24:17;;;;;;;9.70;4.72;;;0.30;99.90;;;;;;6273795;22;20124;-82
2023/11/26 05:27:07;;;;;;;9.85;4.95;;;0.30;99.90;;;;;;6273968;22;20027;-80
2023/11/26 05:29:54;;;;;;;24.27;5.30;;;0.30;99.90;;;;;;6275046;22;20320;-82
2023/11/26 05:32:43;;;;;;;12.20;5.10;;;0.30;99.90;;;;;;6274007;22;20336;-82
2023/11/26 05:35:31;;;;;;;14.65;5.72;;;0.20;99.90;;;;;;6274005;22;20340;-82
2023/11/26 05:38:19;;;;;;;10.27;6.35;;;0.30;99.90;;;;;;6249101;22;20034;-82
2023/11/26 05:41:06;;;;;;;21.52;9.48;;;0.20;99.90;;;;;;6274640;22;20306;-82
2023/11/26 05:43:56;;;;;;;17.92;10.45;;;0.20;99.90;;;;;;6273426;22;20051;-80
2023/11/26 05:46:46;;;;;;;12.32;9.13;;;0.20;99.90;;;;;;6275235;22;20062;-82
2023/11/26 05:49:33;;;;;;;12.55;8.60;;;0.30;99.90;;;;;;6270757;22;20028;-81
2023/11/26 05:52:22;;;;;;;20.45;7.75;;;0.30;99.90;;;;;;6273724;22;20027;-80
2023/11/26 05:55:12;;;;;;;17.98;6.57;;;0.30;99.90;;;;;;6272686;22;20030;-82
2023/11/26 05:58:00;;;;;;;12.57;6.38;;;0.30;99.90;;;;;;6251025;22;20023;-78
2023/11/26 06:00:51;;;;;;;15.98;6.40;;;0.30;99.90;;;;;;6275535;22;20271;-80
2023/11/26 06:03:39;;;;;;;10.80;6.43;;;0.40;99.90;;;;;;6271387;22;20024;-80
2023/11/26 06:06:26;;;;;;;14.75;5.40;;;0.40;99.90;;;;;;6273177;22;20091;-78
2023/11/26 06:09:13;;;;;;;11.65;5.25;;;0.40;99.90;;;;;;6274919;22;20027;-82
2023/11/26 06:12:01;;;;;;;9.30;4.22;;;0.40;99.90;;;;;;6276324;22;20019;-80
2023/11/26 06:14:51;;;;;;;6.40;4.00;;;0.40;99.90;;;;;;6273687;22;20031;-80
2023/11/26 06:17:38;;;;;;;8.90;3.88;;;0.40;99.90;;;;;;6250932;22;20034;-80
2023/11/26 06:20:28;;;;;;;7.47;4.35;;;0.40;99.90;;;;;;6272436;22;20099;-81
2023/11/26 06:23:15;;;;;;;10.27;6.15;;;0.50;99.90;;;;;;6248911;22;20390;-82
2023/11/26 06:26:02;;;;;;;12.52;8.73;;;0.50;99.90;;;;;;6247649;22;20027;-82
2023/11/26 06:28:52;;;;;;;18.77;9.65;;;0.50;99.90;;;;;;6273878;22;20023;-82
2023/11/26 06:31:39;;;;;;;15.38;9.75;;;0.50;99.90;;;;;;6273640;22;20019;-82
2023/11/26 06:34:27;;;;;;;16.70;11.13;;;0.50;99.90;;;;;;6271173;22;20024;-80
2023/11/26 06:37:14;;;;;;;16.58;9.25;;;0.50;99.90;;;;;;6249779;22;20126;-82
2023/11/26 06:40:04;;;;;;;12.57;8.13;;;0.50;99.90;;;;;;6251517;22;20151;-81
2023/11/26 06:42:52;;;;;;;16.70;8.52;;;0.50;99.90;;;;;;6251770;22;20023;-80
2023/11/26 06:45:41;;;;;;;13.55;7.88;;;0.50;99.90;;;;;;6277007;22;20023;-81
2023/11/26 06:48:28;;;;;;;15.40;8.07;;;0.50;99.90;;;;;;6278341;22;20123;-80
2023/11/26 06:51:19;;;;;;;16.48;7.97;;;0.50;99.90;;;;;;6275700;22;20028;-81
2023/11/26 06:54:07;;;;;;;11.82;6.35;;;0.50;99.90;;;;;;6274449;22;20050;-82
2023/11/26 06:56:54;;;;;;;9.18;5.53;;;0.50;99.90;;;;;;6275841;22;20264;-81
2023/11/26 06:59:42;;;;;;;8.90;5.30;;;0.50;99.90;;;;;;6275964;22;20410;-81
2023/11/26 07:02:29;;;;;;;11.90;5.95;;;0.50;99.90;;;;;;6275145;22;20030;-81
2023/11/26 07:05:17;;;;;;;7.45;4.80;;;0.60;99.90;;;;;;6275304;22;20198;-79
2023/11/26 07:08:07;;;;;;;8.18;4.65;;;0.60;99.90;;;;;;6275850;22;20041;-82
2023/11/26 07:10:56;;;;;;;11.00;5.40;;;0.60;99.90;;;;;;6275068;22;20034;-82
2023/11/26 07:13:44;;;;;;;11.13;6.28;;;0.60;99.90;;;;;;6275644;22;20483;-81
2023/11/26 07:16:34;;;;;;;12.68;6.25;;;0.60;99.90;;;;;;6275514;22;20023;-81
2023/11/26 07:19:21;;;;;;;15.20;7.75;;;0.60;99.90;;;;;;6273035;22;20399;-82
2023/11/26 07:22:13;;;;;;;11.00;6.95;;;0.60;99.90;;;;;;6276838;22;20296;-78
2023/11/26 07:25:00;;;;;;;20.23;9.55;;;0.70;99.90;;;;;;6275282;22;20024;-76
2023/11/26 07:27:48;;;;;;;16.67;9.52;;;0.70;99.90;;;;;;6253640;22;20023;-80
2023/11/26 07:30:37;;;;;;;16.80;8.45;;;0.70;99.90;;;;;;6249809;22;20448;-79
2023/11/26 07:33:25;;;;;;;16.23;7.68;;;0.70;99.90;;;;;;6257350;22;20307;-81
2023/11/26 07:36:14;;;;;;;14.55;7.30;;;0.70;99.90;;;;;;6256401;22;20023;-82
2023/11/26 07:39:03;;;;;;;11.63;6.20;;;0.70;99.90;;;;;;6285913;22;20074;-82
2023/11/26 07:41:50;;;;;;;13.88;7.15;;;0.70;99.90;;;;;;6291028;22;20035;-82
2023/11/26 07:44:37;;;;;;;14.77;7.72;;;0.80;99.90;;;;;;6298157;22;20031;-79
2023/11/26 07:47:25;;;;;;;15.50;8.82;;;0.80;99.90;;;;;;6295068;22;20058;-81
2023/11/26 07:50:14;;;;;;;16.13;8.95;;;0.80;99.90;;;;;;6270376;22;20038;-82
2023/11/26 07:53:02;;;;;;;21.60;10.02;;;0.80;99.90;;;;;;6288926;22;20020;-81
2023/11/26 07:55:49;;;;;;;17.77;9.00;;;0.70;99.90;;;;;;6282148;22;20072;-82
2023/11/26 07:58:39;;;;;;;11.43;6.13;;;0.70;99.90;;;;;;6252464;22;20457;-80
2023/11/26 08:01:27;;;;;;;26.67;8.27;;;0.70;99.90;;;;;;6256135;22;20279;-84
2023/11/26 08:04:14;;;;;;;14.35;7.72;;;0.70;99.90;;;;;;6276239;22;20083;-83
2023/11/26 08:07:03;;;;;;;17.00;8.88;;;0.70;99.90;;;;;;6273734;22;20020;-80
2023/11/26 08:09:51;;;;;;;15.75;8.38;;;0.70;99.90;;;;;;6275247;22;20073;-80
2023/11/26 08:12:42;;;;;;;18.88;8.10;;;0.70;99.90;;;;;;6287802;22;20023;-82
2023/11/26 08:15:30;;;;;;;12.32;7.82;;;0.70;99.90;;;;;;6271021;22;20103;-81
2023/11/26 08:18:20;;;;;;;14.35;7.80;;;0.80;99.90;;;;;;6291320;22;20039;-80
2023/11/26 08:21:07;;;;;;;14.80;8.68;;;0.80;99.90;;;;;;6290911;22;20030;-82
2023/11/26 08:23:56;;;;;;;17.50;10.63;;;0.90;99.90;;;;;;6267574;22;20066;-83
2023/11/26 08:26:47;;;;;;;24.02;14.35;;;0.90;99.90;;;;;;6296775;22;20059;-80
2023/11/26 08:29:35;;;;;;;26.92;14.43;;;0.90;99.90;;;;;;6294452;22;20019;-83
2023/11/26 08:32:24;;;;;;;18.42;12.93;;;0.90;99.90;;;;;;6295460;22;20275;-81
2023/11/26 08:35:16;;;;;;;24.55;11.75;;;1.00;99.90;;;;;;6303557;22;20061;-80
2023/11/26 08:38:13;;;;;;;20.73;10.95;;;1.00;99.90;;;;;;6270284;22;20043;-81
2023/11/26 08:41:21;;;;;;;28.65;15.70;;;1.00;99.90;;;;;;6271822;22;20107;-81
2023/11/26 08:44:14;;;;;;;16.88;9.80;;;0.90;99.90;;;;;;6285763;22;20015;-82
2023/11/26 08:47:10;;;;;;;22.85;12.40;;;1.00;99.90;;;;;;6281421;22;20015;-83
2023/11/26 08:50:00;;;;;;;21.95;13.02;;;1.00;99.90;;;;;;6260345;22;20035;-82
2023/11/26 08:52:53;;;;;;;32.50;15.63;;;1.00;99.90;;;;;;6281025;22;20024;-82
2023/11/26 08:55:43;;;;;;;25.85;12.30;;;1.20;99.90;;;;;;6276327;22;20075;-80
2023/11/26 08:58:30;;;;;;;32.53;15.18;;;1.40;99.90;;;;;;6276272;22;20023;-82
2023/11/26 09:01:18;;;;;;;27.00;15.63;;;1.50;99.90;;;;;;6274645;22;20348;-82
2023/11/26 09:04:08;;;;;;;21.30;12.82;;;1.50;99.90;;;;;;6277380;22;20094;-80
2023/11/26 09:06:55;;;;;;;33.15;15.63;;;1.70;99.90;;;;;;6254092;22;20023;-82
2023/11/26 09:09:43;;;;;;;28.35;16.92;;;2.00;99.90;;;;;;6255447;22;20028;-81
2023/11/26 09:12:33;;;;;;;25.95;15.15;;;2.40;99.90;;;;;;6279607;22;20101;-84
2023/11/26 09:15:26;;;;;;;;;;;2.60;99.90;;;;;;6279619;22;20110;-82
2023/11/26 09:18:13;;;;;;;30.88;13.55;;;3.00;99.90;;;;;;6278289;22;20198;-84
2023/11/26 09:21:01;;;;;;;23.02;12.95;;;3.50;99.90;;;;;;6275666;22;20023;-81
2023/11/26 09:23:51;;;;;;;21.35;11.07;;;4.10;99.90;;;;;;6280532;22;20030;-81
2023/11/26 09:26:39;;;;;;;16.60;7.88;;;4.30;99.90;;;;;;6280741;22;20030;-81
2023/11/26 09:29:26;;;;;;;10.32;6.40;;;4.70;99.90;;;;;;6255744;22;20051;-83
2023/11/26 09:32:22;;;;;;;10.35;5.38;;;5.30;99.90;;;;;;6278913;22;20031;-81
2023/11/26 09:35:09;;;;;;;11.43;4.28;;;6.00;99.90;;;;;;6279826;22;20030;-82
2023/11/26 09:37:59;;;;;;;10.35;4.38;;;6.40;99.90;;;;;;6282820;22;20047;-84
2023/11/26 09:40:46;;;;;;;8.30;3.58;;;6.60;99.90;;;;;;6281969;22;20024;-82
2023/11/26 09:43:34;;;;;;;12.60;4.35;;;7.10;99.90;;;;;;6264177;22;20024;-82
2023/11/26 09:46:25;;;;;;;4.07;2.97;;;7.20;99.90;;;;;;6284976;22;20034;-82
2023/11/26 09:49:13;;;;;;;5.60;3.05;;;7.60;99.90;;;;;;6270523;22;20365;-82
2023/11/26 09:52:04;;;;;;;4.90;3.10;;;7.80;99.90;;;;;;6273197;22;20080;-79
2023/11/26 09:54:56;;;;;;;8.50;3.13;;;7.80;99.90;;;;;;6268589;22;20083;-82
2023/11/26 09:57:44;;;;;;;6.80;3.28;;;8.40;99.90;;;;;;6275980;22;20131;-83
2023/11/26 10:00:34;;;;;;;5.40;3.08;;;8.70;99.90;;;;;;6253534;22;20052;-85
2023/11/26 10:03:22;;;;;;;7.18;3.58;;;8.70;99.90;;;;;;6277144;22;20083;-79
2023/11/26 10:06:10;;;;;;;9.25;3.75;;;7.90;99.90;;;;;;6253010;22;20037;-82
2023/11/26 10:09:13;;;;;;;4.13;2.85;;;7.20;1.00;;;;;;6234936;22;20039;-82
2023/11/26 10:12:05;;;;;;;10.85;3.80;;;6.10;99.90;;;;;;6275765;22;20035;-83
2023/11/26 10:15:09;;;;;;;7.20;4.70;;;5.10;99.90;;;;;;6255403;22;20034;-82
2023/11/26 10:18:04;;;;;;;11.13;4.90;;;5.10;1.00;;;;;;6276355;22;20031;-82
2023/11/26 10:21:03;;;;;;;9.57;4.50;;;5.40;99.90;;;;;;6282534;22;20020;-83
2023/11/26 10:23:50;;;;;;;8.70;4.00;;;5.10;71.40;;;;;;6283768;22;20038;-82
2023/11/26 10:26:41;;;;;;;7.65;4.47;;;4.60;1.00;;;;;;6280442;22;20279;-80
2023/11/26 10:29:30;;;;;;;9.27;4.95;;;4.40;1.00;;;;;;6279964;22;20038;-82
2023/11/26 10:32:19;;;;;;;10.68;5.25;;;4.40;99.90;;;;;;6274884;22;20034;-81
2023/11/26 10:35:08;;;;;;;9.82;4.68;;;4.40;99.90;;;;;;6278114;22;20020;-82
2023/11/26 10:38:10;;;;;;;10.57;5.07;;;4.40;99.90;;;;;;6277914;22;20034;-81
2023/11/26 10:40:59;;;;;;;6.97;4.60;;;5.00;99.90;;;;;;6254019;22;20382;-81
2023/11/26 10:43:50;;;;;;;11.27;5.15;;;5.30;89.80;;;;;;6255427;22;20019;-83
2023/11/26 10:46:44;;;;;;;9.27;4.10;;;5.50;35.70;;;;;;6275461;22;20093;-83
2023/11/26 10:49:42;;;;;;;5.00;3.45;;;5.30;1.00;;;;;;6275185;22;20028;-82
2023/11/26 10:52:55;;;;;;;4.32;2.88;;;6.40;1.00;;;;;;6277819;22;20028;-82
2023/11/26 10:55:49;;;;;;;6.55;3.40;;;7.40;99.90;;;;;;6253317;22;20030;-82
2023/11/26 10:58:46;;;;;;;6.00;3.00;;;7.60;2.80;;;;;;6278358;22;20145;-83
2023/11/26 11:01:40;;;;;;;8.07;3.63;;;8.30;1.00;;;;;;6254539;22;20035;-83
2023/11/26 11:04:33;;;;;;;7.40;4.63;;;7.00;99.90;;;;;;6282008;22;20030;-82
2023/11/26 11:07:21;;;;;;;8.85;4.18;;;6.00;99.90;;;;;;6259104;22;20019;-82
2023/11/26 11:10:37;;;;;;;6.55;4.88;;;5.50;99.90;;;;;;6272444;22;20073;-80
2023/11/26 11:13:26;;;;;;;9.10;5.00;;;5.30;1.00;;;;;;6253370;22;20127;-79
2023/11/26 11:16:14;;;;;;;7.47;5.10;;;5.20;1.00;;;;;;6273985;22;20024;-80
2023/11/26 11:19:02;;;;;;;5.50;3.55;;;5.70;75.50;;;;;;6276230;22;20098;-81
2023/11/26 11:21:50;;;;;;;4.90;3.22;;;6.50;1.00;;;;;;6253830;22;20027;-80
2023/11/26 11:24:38;;;;;;;5.40;3.50;;;7.20;1.00;;;;;;6278140;22;20016;-79
2023/11/26 11:27:54;;;;;;;9.23;4.03;;;6.90;99.90;;;;;;6276902;22;20034;-79
2023/11/26 11:30:41;;;;;;;6.63;3.10;;;6.30;99.90;;;;;;6271584;22;20030;-78
2023/11/26 11:33:29;;;;;;;7.13;3.60;;;5.50;99.90;;;;;;6274165;22;20024;-79
2023/11/26 11:36:47;;;;;;;4.45;3.13;;;5.50;1.00;;;;;;6276806;22;20024;-80
2023/11/26 11:39:52;;;;;;;4.55;3.00;;;5.40;1.00;;;;;;6276170;22;20039;-79
2023/11/26 11:42:39;;;;;;;5.55;2.38;;;5.90;1.00;;;;;;6277621;22;20430;-80
2023/11/26 11:45:28;;;;;;;3.70;2.38;;;6.50;1.00;;;;;;6277906;22;20030;-81
2023/11/26 11:48:38;;;;;;;4.03;2.10;;;7.60;1.00;;;;;;6275863;22;20031;-81
2023/11/26 11:51:37;;;;;;;3.97;2.30;;;7.90;99.90;;;;;;6273288;22;20031;-81
2023/11/26 11:54:38;;;;;;;4.25;2.25;;;7.30;99.90;;;;;;6254198;22;20100;-79
2023/11/26 11:57:51;;;;;;;3.63;2.42;;;6.50;99.90;;;;;;6255972;22;20149;-81
2023/11/26 12:00:44;;;;;;;3.67;2.20;;;6.00;99.90;;;;;;6268854;22;20182;-81
2023/11/26 12:03:33;;;;;;;2.80;2.28;;;5.70;99.90;;;;;;6267949;22;20023;-80
2023/11/26 12:06:23;;;;;;;4.13;2.40;;;5.50;99.90;;;;;;6276185;22;20027;-78
2023/11/26 12:09:12;;;;;;;4.70;2.30;;;5.10;99.90;;;;;;6255521;22;20027;-81
2023/11/26 12:12:02;;;;;;;5.13;2.80;;;5.10;99.90;;;;;;6258301;22;20038;-82
2023/11/26 12:14:49;;;;;;;5.90;2.90;;;4.90;99.90;;;;;;6277408;22;20398;-82
2023/11/26 12:17:39;;;;;;;3.70;2.53;;;5.00;99.90;;;;;;6256225;22;20020;-81
2023/11/26 12:20:31;;;;;;;4.50;2.55;;;5.00;99.90;;;;;;6275405;22;20418;-81
2023/11/26 12:23:30;;;;;;;8.63;3.20;;;5.00;99.90;;;;;;6253305;22;20023;-81
2023/11/26 12:26:21;;;;;;;4.68;2.70;;;5.10;99.90;;;;;;6271978;22;20035;-81
2023/11/26 12:29:14;;;;;;;4.28;2.40;;;5.10;99.90;;;;;;6272946;22;20024;-80
2023/11/26 12:32:08;;;;;;;4.18;2.28;;;4.90;99.90;;;;;;6249473;22;20023;-81
2023/11/26 12:35:00;;;;;;;8.13;2.75;;;4.70;99.90;;;;;;6272502;22;20023;-81
2023/11/26 12:37:48;;;;;;;3.10;2.72;;;4.70;99.90;;;;;;6272937;22;20031;-81
2023/11/26 12:40:36;;;;;;;10.68;2.60;;;4.80;99.90;;;;;;6254400;22;20489;-81
2023/11/26 12:43:26;;;;;;;5.30;2.60;;;4.90;99.90;;;;;;6253958;22;20034;-81
2023/11/26 12:46:16;;;;;;;6.28;3.00;;;5.10;99.90;;;;;;6272589;22;20450;-82
2023/11/26 12:49:13;;;;;;;6.25;2.67;;;5.30;99.90;;;;;;6276484;22;20028;-83
2023/11/26 12:52:01;;;;;;;10.27;3.25;;;5.40;99.90;;;;;;6252286;22;20377;-80
2023/11/26 12:54:49;;;;;;;7.95;2.67;;;5.30;99.90;;;;;;6275996;22;20373;-81
2023/11/26 12:57:45;;;;;;;6.22;2.38;;;5.20;99.90;;;;;;6256362;22;20020;-80
2023/11/26 13:00:38;;;;;;;6.45;2.28;;;5.20;99.90;;;;;;6273786;22;20020;-81
2023/11/26 13:03:27;;;;;;;9.35;2.58;;;5.30;99.90;;;;;;6274805;22;20027;-81
2023/11/26 13:06:14;;;;;;;6.22;2.60;;;5.30;99.90;;;;;;6256858;22;20028;-81
2023/11/26 13:09:06;;;;;;;3.75;2.33;;;5.30;99.90;;;;;;6253269;22;20027;-81
2023/11/26 13:12:04;;;;;;;4.57;2.42;;;5.20;99.90;;;;;;6255582;22;20031;-81
2023/11/26 13:14:54;;;;;;;5.43;2.30;;;5.30;99.90;;;;;;6276499;22;20042;-81
2023/11/26 13:17:45;;;;;;;5.15;2.40;;;5.60;99.90;;;;;;6278034;22;20375;-81
2023/11/26 13:20:35;;;;;;;7.35;3.35;;;5.70;99.90;;;;;;6252430;22;20075;-82
2023/11/26 13:23:22;;;;;;;8.00;2.70;;;5.30;99.90;;;;;;6274851;22;20030;-82
2023/11/26 13:26:10;;;;;;;7.35;2.75;;;5.00;99.90;;;;;;6277118;22;20020;-81
2023/11/26 13:29:00;;;;;;;7.80;3.00;;;4.70;99.90;;;;;;6272775;22;20084;-80
2023/11/26 13:31:48;;;;;;;8.90;3.17;;;4.60;99.90;;;;;;6255344;22;20038;-82
2023/11/26 13:34:36;;;;;;;11.80;3.20;;;4.50;99.90;;;;;;6251216;22;20028;-81
2023/11/26 13:37:29;;;;;;;6.75;3.15;;;4.50;99.90;;;;;;6271397;22;20019;-81
2023/11/26 13:40:16;;;;;;;11.18;3.63;;;4.50;99.90;;;;;;6248901;22;20034;-81
2023/11/26 13:43:05;;;;;;;7.45;3.00;;;4.50;99.90;;;;;;6253423;22;20051;-81
2023/11/26 13:45:52;;;;;;;9.32;2.60;;;4.40;99.90;;;;;;6252239;22;20433;-80
2023/11/26 13:48:40;;;;;;;8.98;4.25;;;4.30;99.90;;;;;;6254300;22;20038;-81
2023/11/26 13:51:29;;;;;;;7.53;3.35;;;4.30;99.90;;;;;;6253069;22;20038;-80
2023/11/26 13:54:17;;;;;;;11.38;3.60;;;4.40;99.90;;;;;;6250013;22;20027;-81
2023/11/26 13:57:05;;;;;;;7.32;3.25;;;4.40;99.90;;;;;;6252728;22;20030;-80
2023/11/26 13:59:55;;;;;;;10.45;3.70;;;4.50;99.90;;;;;;6251826;22;20073;-81
2023/11/26 14:02:44;;;;;;;13.77;4.32;;;4.50;99.90;;;;;;6253609;22;20023;-81
2023/11/26 14:05:31;;;;;;;9.52;3.78;;;4.40;99.90;;;;;;6249592;22;20101;-81
2023/11/26 14:08:19;;;;;;;10.00;3.47;;;4.40;99.90;;;;;;6252116;22;20019;-81
2023/11/26 14:11:11;;;;;;;7.20;3.10;;;4.30;99.90;;;;;;6251904;22;20117;-82
2023/11/26 14:13:58;;;;;;;10.32;4.05;;;4.20;99.90;;;;;;6273663;22;20051;-82
2023/11/26 14:16:48;;;;;;;10.55;4.32;;;4.10;99.90;;;;;;6249444;22;20390;-82
2023/11/26 14:19:37;;;;;;;11.05;4.35;;;4.10;99.90;;;;;;6250786;22;20112;-81
2023/11/26 14:22:27;;;;;;;14.07;5.50;;;4.00;99.90;;;;;;6249799;22;20085;-81
2023/11/26 14:25:16;;;;;;;13.73;6.28;;;3.80;99.90;;;;;;6253069;22;20426;-80
2023/11/26 14:28:04;;;;;;;13.63;5.63;;;3.70;1.00;;;;;;6274631;22;20034;-81
2023/11/26 14:30:51;;;;;;;15.30;5.47;;;3.60;1.00;;;;;;6274915;22;20480;-80
2023/11/26 14:33:43;;;;;;;16.08;5.07;;;3.50;1.00;;;;;;6250739;22;20109;-80
2023/11/26 14:36:31;;;;;;;7.88;4.32;;;3.50;1.00;;;;;;6273090;22;20027;-81
2023/11/26 14:39:20;;;;;;;8.88;5.15;;;3.40;21.40;;;;;;6274920;22;20031;-81
2023/11/26 14:42:08;;;;;;;11.77;5.28;;;3.30;99.90;;;;;;6275505;22;20023;-81
2023/11/26 14:44:57;;;;;;;18.33;5.50;;;3.20;1.00;;;;;;6272725;22;20019;-80
2023/11/26 14:47:45;;;;;;;12.80;5.22;;;3.20;99.90;;;;;;6274241;22;20104;-81